createdAt,value
2022-10-11T00:01:05.523Z,12.41
2022-10-11T00:04:07.862Z,12.40
2022-10-11T00:07:09.775Z,12.23
2022-10-11T00:10:11.991Z,12.21
2022-10-11T00:13:14.066Z,12.25
2022-10-11T00:16:16.271Z,12.11
2022-10-11T00:19:18.214Z,12.08
2022-10-11T00:22:20.383Z,12.05
2022-10-11T00:25:22.329Z,12.04
2022-10-11T00:28:24.635Z,12.02
2022-10-11T00:31:26.614Z,11.92
2022-10-11T00:34:29.079Z,11.94
2022-10-11T00:37:31.310Z,11.91
2022-10-11T00:40:33.523Z,11.80
2022-10-11T00:43:35.937Z,11.71
2022-10-11T00:46:38.551Z,11.63
2022-10-11T00:49:45.429Z,11.62
2022-10-11T00:52:50.130Z,11.51
2022-10-11T00:56:07.246Z,11.60
2022-10-11T00:59:14.484Z,11.49
2022-10-11T01:02:17.467Z,11.47
2022-10-11T01:05:32.458Z,11.47
2022-10-11T01:08:34.622Z,11.34
2022-10-11T01:11:39.154Z,11.30
2022-10-11T01:14:40.994Z,11.33
2022-10-11T01:17:52.234Z,11.29
2022-10-11T01:21:00.164Z,11.26
2022-10-11T01:24:10.309Z,11.51
2022-10-11T01:27:36.888Z,11.42
2022-10-11T01:30:39.734Z,11.43
2022-10-11T01:33:44.827Z,11.39
2022-10-11T01:36:54.914Z,11.37
2022-10-11T01:40:01.315Z,11.40
2022-10-11T01:43:04.802Z,11.40
2022-10-11T01:46:08.268Z,11.31
2022-10-11T01:49:10.737Z,11.30
2022-10-11T01:52:12.676Z,11.35
2022-10-11T01:55:33.617Z,11.28
2022-10-11T01:58:38.295Z,11.27
2022-10-11T02:01:54.290Z,11.14
2022-10-11T02:05:02.626Z,11.04
2022-10-11T02:08:18.982Z,10.95
2022-10-11T02:11:24.763Z,10.85
2022-10-11T02:14:30.747Z,10.85
2022-10-11T02:17:36.126Z,10.88
2022-10-11T02:20:39.641Z,10.87
2022-10-11T02:24:02.077Z,10.91
2022-10-11T02:27:05.594Z,10.90
2022-10-11T02:30:09.894Z,10.91
2022-10-11T02:33:13.646Z,11.00
2022-10-11T02:36:39.020Z,11.10
2022-10-11T02:39:44.819Z,11.06
2022-10-11T02:43:03.168Z,11.13
2022-10-11T02:46:05.955Z,11.13
2022-10-11T02:49:08.682Z,11.12
2022-10-11T02:52:10.647Z,11.25
2022-10-11T02:55:12.857Z,11.28
2022-10-11T02:58:14.737Z,11.26
2022-10-11T03:01:16.980Z,11.15
2022-10-11T03:04:18.962Z,11.02
2022-10-11T03:07:21.130Z,11.01
2022-10-11T03:10:23.055Z,10.84
2022-10-11T03:13:25.260Z,10.76
2022-10-11T03:16:27.150Z,10.64
2022-10-11T03:19:29.423Z,10.70
2022-10-11T03:22:31.340Z,10.80
2022-10-11T03:25:33.547Z,10.84
2022-10-11T03:28:35.496Z,10.83
2022-10-11T03:31:37.737Z,10.98
2022-10-11T03:34:39.639Z,10.95
2022-10-11T03:37:41.861Z,11.04
2022-10-11T03:40:44.164Z,11.13
2022-10-11T03:43:46.341Z,11.23
2022-10-11T03:46:48.219Z,11.33
2022-10-11T03:49:50.394Z,11.43
2022-10-11T03:52:52.327Z,11.45
2022-10-11T03:55:55.429Z,11.39
2022-10-11T03:58:57.355Z,11.48
2022-10-11T04:01:59.746Z,11.57
2022-10-11T04:05:02.667Z,11.52
2022-10-11T04:08:08.437Z,11.48
2022-10-11T04:11:13.326Z,11.45
2022-10-11T04:14:15.215Z,11.55
2022-10-11T04:17:17.625Z,11.54
2022-10-11T04:20:19.486Z,11.60
2022-10-11T04:23:21.613Z,11.51
2022-10-11T04:26:24.356Z,11.48
2022-10-11T04:29:30.121Z,11.53
2022-10-11T04:32:34.646Z,11.60
2022-10-11T04:35:36.993Z,11.54
2022-10-11T04:38:38.855Z,11.61
2022-10-11T04:41:41.029Z,11.42
2022-10-11T04:44:42.925Z,11.29
2022-10-11T04:47:45.090Z,11.41
2022-10-11T04:50:46.951Z,11.39
2022-10-11T04:53:51.627Z,11.60
2022-10-11T04:56:53.532Z,11.52
2022-10-11T04:59:55.730Z,11.45
2022-10-11T05:02:57.667Z,11.50
2022-10-11T05:06:05.236Z,11.51
2022-10-11T05:09:07.778Z,11.64
2022-10-11T05:12:10.269Z,11.79
2022-10-11T05:15:12.262Z,11.81
2022-10-11T05:18:14.475Z,11.74
2022-10-11T05:21:27.131Z,11.75
2022-10-11T05:24:29.297Z,11.89
2022-10-11T05:27:31.145Z,12.03
2022-10-11T05:30:33.324Z,12.18
2022-10-11T05:33:35.330Z,12.14
2022-10-11T05:36:37.489Z,12.20
2022-10-11T05:39:39.356Z,12.19
2022-10-11T05:42:41.550Z,12.42
2022-10-11T05:45:43.866Z,12.59
2022-10-11T05:48:46.001Z,12.83
2022-10-11T05:51:47.891Z,13.16
2022-10-11T05:54:50.156Z,13.23
2022-10-11T05:57:55.544Z,13.40
2022-10-11T06:00:57.802Z,13.38
2022-10-11T06:04:00.008Z,13.65
2022-10-11T06:07:01.902Z,13.85
2022-10-11T06:10:04.441Z,13.86
2022-10-11T06:13:09.499Z,13.88
2022-10-11T06:16:12.260Z,14.11
2022-10-11T06:19:14.226Z,14.46
2022-10-11T06:22:16.748Z,14.64
2022-10-11T06:25:18.599Z,14.76
2022-10-11T06:28:20.792Z,14.94
2022-10-11T06:31:22.895Z,14.85
2022-10-11T06:34:25.070Z,15.09
2022-10-11T06:37:26.962Z,15.02
2022-10-11T06:40:29.586Z,14.84
2022-10-11T06:43:31.487Z,14.99
2022-10-11T06:46:33.678Z,14.82
2022-10-11T06:49:35.610Z,14.68
2022-10-11T06:52:37.787Z,14.87
2022-10-11T06:55:39.819Z,14.89
2022-10-11T06:58:42.004Z,14.95
2022-10-11T07:01:44.032Z,15.00
2022-10-11T07:04:46.254Z,15.20
2022-10-11T07:07:48.374Z,15.30
2022-10-11T07:10:51.502Z,15.49
2022-10-11T07:13:53.387Z,15.45
2022-10-11T07:16:55.548Z,15.63
2022-10-11T07:19:57.686Z,15.77
2022-10-11T07:22:59.806Z,15.92
2022-10-11T07:26:01.956Z,15.89
2022-10-11T07:29:04.620Z,16.13
2022-10-11T07:32:06.610Z,16.18
2022-10-11T07:35:08.808Z,16.33
2022-10-11T07:38:12.382Z,16.35
2022-10-11T07:41:14.685Z,16.30
2022-10-11T07:44:16.550Z,16.68
2022-10-11T07:47:18.848Z,17.24
2022-10-11T07:50:20.810Z,17.48
2022-10-11T07:53:22.938Z,17.10
2022-10-11T07:56:28.734Z,16.54
2022-10-11T07:59:30.892Z,16.63
2022-10-11T08:02:32.757Z,16.61
2022-10-11T08:05:36.750Z,16.83
2022-10-11T08:08:38.670Z,16.74
2022-10-11T08:11:40.914Z,16.71
2022-10-11T08:14:42.807Z,16.62
2022-10-11T08:17:45.039Z,16.92
2022-10-11T08:20:47.003Z,17.12
2022-10-11T08:23:49.137Z,17.09
2022-10-11T08:26:51.543Z,16.74
2022-10-11T08:29:53.690Z,16.52
2022-10-11T08:32:55.701Z,16.40
2022-10-11T08:35:58.471Z,16.25
2022-10-11T08:39:00.890Z,16.30
2022-10-11T08:42:05.094Z,16.34
2022-10-11T08:45:16.826Z,16.44
2022-10-11T08:48:31.167Z,16.68
2022-10-11T08:51:41.733Z,16.80
2022-10-11T08:54:50.204Z,17.21
2022-10-11T08:57:53.751Z,17.34
2022-10-11T09:00:57.550Z,17.45
2022-10-11T09:04:00.160Z,17.60
2022-10-11T09:07:04.845Z,17.74
2022-10-11T09:10:25.869Z,17.51
2022-10-11T09:13:51.845Z,17.58
2022-10-11T09:17:12.673Z,17.58
2022-10-11T09:20:17.546Z,17.56
2022-10-11T09:23:25.316Z,17.56
2022-10-11T09:26:53.868Z,17.50
2022-10-11T09:29:55.926Z,17.40
2022-10-11T09:33:04.485Z,17.68
2022-10-11T09:36:16.563Z,18.19
2022-10-11T09:39:30.816Z,18.45
2022-10-11T09:42:32.719Z,18.63
2022-10-11T09:45:34.900Z,18.85
2022-10-11T09:48:41.286Z,18.84
2022-10-11T09:51:46.508Z,18.66
2022-10-11T09:54:54.189Z,18.53
2022-10-11T09:57:56.354Z,18.59
2022-10-11T10:01:08.218Z,18.65
2022-10-11T10:04:16.859Z,18.73
2022-10-11T10:07:18.846Z,19.05
2022-10-11T10:10:31.150Z,19.14
2022-10-11T10:13:51.245Z,19.42
2022-10-11T10:17:01.789Z,19.63
2022-10-11T10:20:05.560Z,19.64
2022-10-11T10:23:20.532Z,19.99
2022-10-11T10:26:23.574Z,19.69
2022-10-11T10:29:25.733Z,20.25
2022-10-11T10:32:30.789Z,20.79
2022-10-11T10:35:35.425Z,20.93
2022-10-11T10:38:40.678Z,20.86
2022-10-11T10:41:42.807Z,20.89
2022-10-11T10:44:47.377Z,20.83
2022-10-11T10:48:02.731Z,20.83
2022-10-11T10:51:14.570Z,21.23
2022-10-11T10:54:30.056Z,21.39
2022-10-11T10:58:01.442Z,21.53
2022-10-11T11:01:18.250Z,21.92
2022-10-11T11:04:29.642Z,22.20
2022-10-11T11:07:52.935Z,22.58
2022-10-11T11:11:04.253Z,22.23
2022-10-11T11:14:25.115Z,21.98
2022-10-11T11:17:35.919Z,22.82
2022-10-11T11:20:44.497Z,23.00
2022-10-11T11:24:00.107Z,23.46
2022-10-11T11:27:23.664Z,23.67
2022-10-11T11:30:51.914Z,24.54
2022-10-11T11:34:05.141Z,25.96
2022-10-11T11:37:16.303Z,27.56
2022-10-11T11:40:31.477Z,26.76
2022-10-11T11:44:04.474Z,26.35
2022-10-11T11:47:31.244Z,27.04
2022-10-11T11:50:46.202Z,27.85
2022-10-11T11:54:09.316Z,29.40
2022-10-11T11:57:29.245Z,29.33
2022-10-11T12:00:34.972Z,30.85
2022-10-11T12:03:41.592Z,30.50
2022-10-11T12:07:11.141Z,31.58
2022-10-11T12:10:32.731Z,30.16
2022-10-11T12:13:36.853Z,29.95
2022-10-11T12:16:58.958Z,30.74
2022-10-11T12:20:03.978Z,31.69
2022-10-11T12:23:20.057Z,30.43
2022-10-11T12:26:28.281Z,27.87
2022-10-11T12:29:48.034Z,27.09
2022-10-11T12:32:55.597Z,26.53
2022-10-11T12:40:33.851Z,27.82
2022-10-11T12:43:48.169Z,27.37
2022-10-11T12:46:50.118Z,27.97
2022-10-11T12:49:59.347Z,27.35
2022-10-11T12:53:09.109Z,28.89
2022-10-11T12:56:16.688Z,29.18
2022-10-11T12:59:21.356Z,29.08
2022-10-11T13:02:29.086Z,26.39
2022-10-11T13:05:45.196Z,24.95
2022-10-11T13:08:53.194Z,23.83
2022-10-11T13:12:06.376Z,23.07
2022-10-11T13:15:12.941Z,22.40
2022-10-11T13:18:15.662Z,21.67
2022-10-11T13:21:23.039Z,20.97
2022-10-11T13:24:27.300Z,20.52
2022-10-11T13:27:29.691Z,20.61
2022-10-11T13:30:33.286Z,20.34
2022-10-11T13:33:45.155Z,20.27
2022-10-11T13:36:47.012Z,20.26
2022-10-11T13:39:51.213Z,20.12
2022-10-11T13:42:54.239Z,20.26
2022-10-11T13:45:58.717Z,20.67
2022-10-11T13:49:22.748Z,20.90
2022-10-11T13:52:24.949Z,21.28
2022-10-11T13:55:46.772Z,22.09
2022-10-11T13:58:48.926Z,22.15
2022-10-11T14:01:54.350Z,21.21
2022-10-11T14:04:56.516Z,20.77
2022-10-11T14:08:00.058Z,20.93
2022-10-11T14:11:06.263Z,21.08
2022-10-11T14:14:28.674Z,20.85
2022-10-11T14:17:37.992Z,20.61
2022-10-11T14:20:40.594Z,20.19
2022-10-11T14:23:42.864Z,20.04
2022-10-11T14:26:48.552Z,20.00
2022-10-11T14:30:12.944Z,19.78
2022-10-11T14:33:12.740Z,19.54
2022-10-11T14:36:14.980Z,19.62
2022-10-11T14:39:18.880Z,19.48
2022-10-11T14:42:21.072Z,19.24
2022-10-11T14:45:23.082Z,19.10
2022-10-11T14:48:53.634Z,19.05
2022-10-11T14:51:48.171Z,18.92
2022-10-11T14:54:50.568Z,18.77
2022-10-11T14:57:52.494Z,18.79
2022-10-11T15:00:54.667Z,18.64
2022-10-11T15:03:56.567Z,18.75
2022-10-11T15:06:58.929Z,18.70
2022-10-11T15:10:03.578Z,18.50
2022-10-11T15:13:07.108Z,18.46
2022-10-11T15:16:10.683Z,18.47
2022-10-11T15:19:17.409Z,18.27
2022-10-11T15:22:19.312Z,18.29
2022-10-11T15:25:22.046Z,18.05
2022-10-11T15:28:28.759Z,18.00
2022-10-11T15:31:30.995Z,17.93
2022-10-11T15:34:32.929Z,17.84
2022-10-11T15:37:37.435Z,17.66
2022-10-11T15:40:39.471Z,17.42
2022-10-11T15:43:42.441Z,17.36
2022-10-11T15:46:44.507Z,17.29
2022-10-11T15:49:46.730Z,17.37
2022-10-11T15:52:48.906Z,17.36
2022-10-11T15:55:52.777Z,17.31
2022-10-11T15:58:54.679Z,17.18
2022-10-11T16:01:57.158Z,16.99
2022-10-11T16:04:59.505Z,16.96
2022-10-11T16:08:01.415Z,17.07
2022-10-11T16:11:04.803Z,16.92
2022-10-11T16:14:06.872Z,16.80
2022-10-11T16:17:09.103Z,16.68
2022-10-11T16:20:11.016Z,16.61
2022-10-11T16:23:13.586Z,16.40
2022-10-11T16:26:16.556Z,16.20
2022-10-11T16:29:18.813Z,16.17
2022-10-11T16:32:21.174Z,16.11
2022-10-11T16:35:23.557Z,15.92
2022-10-11T16:38:25.673Z,15.90
2022-10-11T16:41:27.981Z,15.76
2022-10-11T16:44:29.944Z,15.70
2022-10-11T16:47:32.201Z,15.51
2022-10-11T16:50:39.089Z,15.41
2022-10-11T16:53:41.864Z,15.40
2022-10-11T16:56:43.842Z,15.48
2022-10-11T16:59:46.751Z,15.47
2022-10-11T17:02:48.664Z,15.46
2022-10-11T17:05:50.848Z,15.48
2022-10-11T17:08:52.833Z,15.46
2022-10-11T17:11:55.346Z,15.48
2022-10-11T17:14:57.336Z,15.48
2022-10-11T17:17:59.540Z,15.70
2022-10-11T17:21:02.842Z,15.62
2022-10-11T17:24:05.082Z,15.68
2022-10-11T17:27:07.106Z,15.49
2022-10-11T17:30:09.779Z,15.41
2022-10-11T17:33:11.690Z,15.45
2022-10-11T17:36:19.976Z,15.35
2022-10-11T17:39:23.122Z,15.38
2022-10-11T17:42:25.359Z,15.47
2022-10-11T17:45:27.306Z,15.52
2022-10-11T17:48:29.532Z,15.45
2022-10-11T17:51:31.473Z,15.64
2022-10-11T17:54:33.710Z,15.54
2022-10-11T17:57:35.646Z,15.55
2022-10-11T18:00:38.955Z,15.51
2022-10-11T18:03:41.716Z,15.50
2022-10-11T18:06:45.010Z,15.51
2022-10-11T18:09:47.239Z,15.59
2022-10-11T18:12:52.748Z,15.52
2022-10-11T18:15:54.932Z,15.42
2022-10-11T18:18:57.489Z,15.34
2022-10-11T18:22:03.222Z,15.26
2022-10-11T18:25:09.235Z,15.16
2022-10-11T18:28:11.823Z,15.04
2022-10-11T18:31:15.757Z,14.95
2022-10-11T18:34:18.110Z,14.89
2022-10-11T18:37:20.026Z,14.95
2022-10-11T18:40:22.265Z,15.00
2022-10-11T18:43:24.161Z,14.79
2022-10-11T18:46:26.593Z,14.70
2022-10-11T18:49:28.567Z,14.72
2022-10-11T18:52:31.069Z,14.46
2022-10-11T18:55:33.088Z,14.42
2022-10-11T18:58:36.671Z,14.31
2022-10-11T19:01:39.988Z,14.32
2022-10-11T19:04:42.251Z,14.27
2022-10-11T19:07:44.345Z,14.18
2022-10-11T19:10:46.529Z,14.12
2022-10-11T19:13:49.376Z,14.18
2022-10-11T19:16:52.417Z,14.06
2022-10-11T19:19:54.341Z,13.91
2022-10-11T19:22:56.571Z,13.83
2022-10-11T19:25:58.456Z,13.71
2022-10-11T19:29:02.630Z,13.83
2022-10-11T19:32:04.716Z,13.88
2022-10-11T19:35:07.337Z,13.91
2022-10-11T19:38:09.226Z,13.84
2022-10-11T19:41:12.237Z,13.57
2022-10-11T19:44:14.649Z,13.58
2022-10-11T19:47:16.888Z,13.59
2022-10-11T19:50:18.843Z,13.66
2022-10-11T19:53:21.002Z,13.79
2022-10-11T19:56:22.938Z,13.81
2022-10-11T19:59:26.754Z,13.68
2022-10-11T20:02:28.638Z,13.68
2022-10-11T20:05:31.619Z,13.81
2022-10-11T20:08:34.321Z,13.89
2022-10-11T20:11:36.621Z,13.97
2022-10-11T20:14:38.548Z,14.02
2022-10-11T20:17:50.145Z,14.07
2022-10-11T20:20:53.006Z,14.14
2022-10-11T20:23:59.870Z,14.23
2022-10-11T20:27:03.299Z,14.25
2022-10-11T20:30:05.613Z,14.31
2022-10-11T20:33:07.501Z,14.31
2022-10-11T20:36:10.854Z,14.30
2022-10-11T20:39:12.845Z,14.10
2022-10-11T20:42:15.220Z,13.86
2022-10-11T20:45:17.112Z,13.70
2022-10-11T20:48:19.281Z,13.57
2022-10-11T20:51:22.236Z,13.63
2022-10-11T20:54:24.486Z,13.55
2022-10-11T20:57:26.423Z,13.67
2022-10-11T21:00:28.676Z,13.56
2022-10-11T21:03:30.564Z,13.34
2022-10-11T21:06:33.105Z,13.24
2022-10-11T21:09:35.033Z,13.19
2022-10-11T21:12:37.313Z,13.28
2022-10-11T21:15:39.219Z,13.17
2022-10-11T21:18:41.801Z,13.12
2022-10-11T21:21:46.456Z,13.08
2022-10-11T21:24:50.651Z,13.08
2022-10-11T21:27:52.497Z,13.08
2022-10-11T21:30:54.731Z,13.07
2022-10-11T21:33:56.666Z,13.09
2022-10-11T21:36:58.872Z,13.15
2022-10-11T21:40:00.743Z,13.26
2022-10-11T21:43:02.928Z,13.34
2022-10-11T21:46:11.790Z,13.24
2022-10-11T21:49:13.987Z,13.19
2022-10-11T21:52:16.051Z,13.47
2022-10-11T21:55:18.254Z,13.39
2022-10-11T21:58:20.116Z,13.35
2022-10-11T22:01:22.469Z,13.45
2022-10-11T22:04:24.732Z,13.31
2022-10-11T22:07:26.605Z,13.22
2022-10-11T22:10:28.884Z,13.03
2022-10-11T22:13:32.002Z,12.98
2022-10-11T22:16:34.692Z,12.91
2022-10-11T22:19:36.601Z,12.85
2022-10-11T22:22:38.732Z,12.98
2022-10-11T22:25:40.893Z,12.80
2022-10-11T22:28:43.169Z,12.67
2022-10-11T22:31:45.080Z,12.63
2022-10-11T22:34:47.255Z,12.56
2022-10-11T22:37:50.372Z,12.52
2022-10-11T22:40:52.568Z,12.45
2022-10-11T22:43:54.535Z,12.35
2022-10-11T22:46:56.951Z,12.27
2022-10-11T22:49:58.848Z,12.28
2022-10-11T22:53:01.066Z,12.06
2022-10-11T22:56:03.018Z,11.93
2022-10-11T22:59:05.271Z,11.81
2022-10-11T23:02:07.699Z,11.79
2022-10-11T23:05:09.908Z,11.71
2022-10-11T23:08:11.803Z,11.71
2022-10-11T23:11:13.985Z,11.74
2022-10-11T23:14:15.937Z,11.71
2022-10-11T23:17:18.261Z,11.89
2022-10-11T23:20:20.196Z,11.85
2022-10-11T23:23:22.365Z,11.68
2022-10-11T23:26:24.255Z,11.73
2022-10-11T23:29:26.464Z,11.66
2022-10-11T23:32:28.395Z,11.86
2022-10-11T23:35:30.583Z,11.95
2022-10-11T23:38:32.498Z,12.06
2022-10-11T23:41:34.676Z,12.13
2022-10-11T23:44:36.577Z,12.10
2022-10-11T23:47:39.020Z,12.07
2022-10-11T23:50:42.136Z,11.88
2022-10-11T23:53:44.378Z,11.79
2022-10-11T23:56:46.257Z,11.83
2022-10-11T23:59:48.442Z,11.92
